Latest Weather Observations for Learmonth

IDW60801

Issued at 4:33 pm WST Monday 20 February 2017 (issued every 30 minutes, with the page automatically refreshed every 10 minutes)

About weather observations | Map of weather stations | Latest weather observations for WA | Other Formats
Station Details ID: 005007 Name: LEARMONTH AIRPORT Lat: -22.24 Lon: 114.10 Height: 5.0 m
Data from the previous 72 hours. | See also: Recent months at Learmonth
Date/Time
WST
Temp
°C
App
Temp
°C
Dew
Point
°C
Rel
Hum
%
Delta-T
°C
Wind Press
QNH
hPa
Press
MSL
hPa
Rain since
9am
mm
Dir  Spd
km/h
Gust
km/h
Spd
kts
Gust
kts
20/04:30pm 36.1 37.1 22.2 44 9.6 W 20 30 11 16 1007.2 - 0.0
20/04:00pm 36.4 36.4 21.6 42 10.1 W 24 32 13 17 1007.4 - 0.0
20/03:30pm 36.0 36.8 18.1 34 11.7 NE 11 17 6 9 1007.5 - 0.0
20/03:00pm 35.9 35.9 18.1 35 11.6 ENE 15 19 8 10 1007.7 - 0.0
20/02:30pm 35.7 35.9 18.5 36 11.3 ENE 15 20 8 11 1007.9 - 0.0
20/02:00pm 35.7 36.1 19.1 37 11.0 E 15 19 8 10 1008.2 - 0.0
20/01:30pm 35.2 36.2 19.5 39 10.4 E 13 20 7 11 1008.7 - 0.0
20/01:00pm 35.3 36.7 20.4 41 10.0 E 13 20 7 11 1009.1 - 0.0
20/12:30pm 33.8 35.0 19.8 43 9.3 ESE 13 19 7 10 1009.4 - 0.0
20/12:00pm 33.1 35.5 20.9 48 8.2 ESE 9 17 5 9 1009.7 - 0.0
20/11:30am 32.7 35.0 20.6 49 8.1 E 9 13 5 7 1010.0 - 0.0
20/11:00am 32.4 34.7 20.7 50 7.8 E 9 13 5 7 1010.5 - 0.0
20/10:30am 32.0 35.1 22.2 56 6.7 E 9 13 5 7 1010.6 - 0.0
20/10:00am 30.6 33.6 21.9 59 5.9 ENE 9 13 5 7 1010.9 - 0.0
20/09:30am 30.4 33.5 22.1 61 5.6 NE 9 15 5 8 1010.9 - 0.0
20/09:00am 30.1 33.1 22.0 62 5.5 ENE 9 15 5 8 1010.9 1010.8 0.0
20/08:30am 29.5 32.7 21.6 62 5.3 ENE 7 11 4 6 1010.9 - 0.0
20/08:00am 29.1 32.4 22.5 67 4.5 ENE 9 11 5 6 1010.8 - 0.0
20/07:30am 28.6 31.1 21.8 66 4.6 E 11 15 6 8 1010.7 - 0.0
20/07:00am 27.5 31.8 23.3 78 2.9 ENE 6 7 3 4 1010.5 - 0.0
20/06:30am 25.5 29.4 23.0 86 1.7 N 7 7 4 4 1010.3 - 0.0
20/06:00am 25.4 28.8 22.7 85 1.8 NNW 9 9 5 5 1010.1 1010.0 0.0
20/05:30am 25.7 29.4 22.3 81 2.3 NNW 6 7 3 4 1009.8 - 0.0
20/05:00am 25.7 30.9 22.9 84 1.9 CALM 0 0 0 0 1009.8 - 0.0
20/04:30am 26.0 30.8 22.1 79 2.6 CALM 0 6 0 3 1009.5 - 0.0
20/04:00am 26.3 31.1 22.1 77 2.8 CALM 0 0 0 0 1009.6 - 0.0
20/03:30am 26.4 30.2 21.6 75 3.2 W 4 6 2 3 1009.7 - 0.0
20/03:00am 26.3 30.9 21.8 76 3.0 CALM 0 0 0 0 1010.0 1009.9 0.0
20/02:30am 26.3 30.6 22.0 77 2.9 S 2 6 1 3 1010.3 - 0.0
20/02:00am 26.6 29.9 21.8 75 3.2 S 7 11 4 6 1010.5 - 0.0
20/01:30am 27.3 27.2 20.8 67 4.3 SE 22 28 12 15 1010.7 - 0.0
20/01:00am 26.9 31.5 21.7 73 3.5 CALM 0 6 0 3 1010.6 - 0.0
20/12:30am 26.6 29.9 21.5 73 3.4 W 6 9 3 5 1010.5 - 0.0
20/12:00am 26.5 29.6 21.4 73 3.4 WSW 7 9 4 5 1010.7 1010.6 0.0
 
Date/Time
WST
Temp
°C
App
Temp
°C
Dew
Point
°C
Rel
Hum
%
Delta-T
°C
Wind Press
QNH
hPa
Press
MSL
hPa
Rain since
9am
mm
Dir  Spd
km/h
Gust
km/h
Spd
kts
Gust
kts
19/11:30pm 26.6 28.8 21.2 72 3.6 SSW 11 15 6 8 1011.1 - 0.0
19/11:00pm 27.2 27.8 21.3 70 3.9 S 20 30 11 16 1011.6 - 0.0
19/10:30pm 27.8 27.9 21.8 70 4.0 S 24 32 13 17 1011.6 - 0.0
19/10:00pm 28.5 31.0 24.8 80 2.6 S 20 26 11 14 1011.4 - 0.0
19/09:30pm 29.2 31.4 24.0 73 3.6 SW 19 24 10 13 1010.4 - 0.0
19/09:00pm 29.2 31.4 23.9 73 3.7 WSW 19 22 10 12 1009.6 1009.5 0.0
19/08:30pm 29.6 31.9 23.5 69 4.2 W 17 24 9 13 1009.5 - 0.0
19/08:00pm 29.9 31.3 22.6 65 5.0 W 19 26 10 14 1009.3 - 0.0
19/07:30pm 30.1 31.5 22.8 65 5.0 W 20 28 11 15 1009.1 - 0.0
19/07:00pm 30.8 32.3 23.1 63 5.3 W 20 28 11 15 1008.8 - 0.0
19/06:30pm 32.0 33.1 23.0 59 6.2 W 22 28 12 15 1008.4 - 0.0
19/06:00pm 33.5 35.0 23.1 54 7.2 W 20 26 11 14 1008.3 1008.2 0.0
19/05:30pm 34.7 36.5 23.5 52 7.8 WSW 20 26 11 14 1008.1 - 0.0
19/05:00pm 35.7 37.6 23.7 50 8.4 W 20 26 11 14 1008.1 - 0.0
19/04:30pm 36.3 39.5 21.3 41 10.2 SW 6 11 3 6 1008.3 - 0.0
19/04:00pm 35.8 39.6 20.9 42 10.1 NE 2 9 1 5 1008.5 - 0.0
19/03:30pm 35.8 38.8 21.9 44 9.5 N 9 15 5 8 1008.7 - 0.0
19/03:00pm 34.6 37.2 21.2 45 9.1 NE 9 13 5 7 1009.2 1009.1 0.0
19/02:30pm 34.4 36.3 20.5 44 9.3 ENE 11 13 6 7 1009.5 - 0.0
19/02:00pm 34.2 36.4 21.9 48 8.4 E 13 17 7 9 1009.7 - 0.0
19/01:30pm 33.4 36.1 22.1 51 7.7 E 11 19 6 10 1010.0 - 0.0
19/01:00pm 32.8 36.8 23.8 59 6.3 E 9 19 5 10 1010.3 - 0.0
19/12:30pm 31.6 35.0 23.4 61 5.7 ESE 11 15 6 8 1010.7 - 0.0
19/12:00pm 30.6 33.2 23.3 65 5.0 E 15 20 8 11 1011.1 1011.0 0.0
19/11:30am 30.6 33.2 22.7 62 5.4 E 13 19 7 10 1011.2 - 0.0
19/11:00am 30.4 33.7 23.9 68 4.5 E 13 20 7 11 1011.5 - 0.0
19/10:30am 30.3 33.4 23.5 67 4.7 E 13 19 7 10 1011.6 - 0.0
19/10:00am 30.3 33.4 23.6 67 4.6 SE 13 19 7 10 1011.9 - 0.0
19/09:30am 29.2 33.0 24.0 73 3.6 SE 11 17 6 9 1012.2 - 0.0
19/09:00am 28.7 33.3 24.2 76 3.1 ESE 7 11 4 6 1012.4 1012.3 2.6
19/08:30am 27.7 32.1 24.4 82 2.3 SSE 9 11 5 6 1012.5 - 2.6
19/08:00am 26.5 31.3 24.5 89 1.4 SSE 7 11 4 6 1012.6 - 2.6
19/07:30am 25.9 30.7 24.5 92 1.0 S 7 11 4 6 1012.5 - 2.6
19/07:00am 24.8 28.3 23.5 92 0.9 S 11 13 6 7 1012.3 - 2.6
19/06:30am 24.5 28.2 23.3 93 0.8 SSW 9 13 5 7 1012.0 - 2.6
19/06:00am 24.5 28.1 23.0 91 1.0 SSW 9 9 5 5 1011.8 1011.7 2.6
19/05:30am 24.5 28.2 23.2 92 0.9 SW 9 11 5 6 1011.6 - 2.6
19/05:00am 24.5 27.9 23.3 93 0.8 SW 11 13 6 7 1011.7 - 2.6
19/04:30am 24.6 28.2 23.1 91 1.0 SW 9 11 5 6 1011.6 - 2.4
19/04:00am 24.6 28.3 23.3 92 0.9 SW 9 11 5 6 1011.5 - 2.4
19/03:30am 24.5 28.4 23.6 95 0.6 SSW 9 13 5 7 1011.3 - 2.4
19/03:00am 24.3 27.8 23.6 96 0.5 S 11 15 6 8 1011.3 1011.2 2.4
19/02:30am 24.1 24.6 22.6 91 1.0 SSW 24 35 13 19 1011.1 - 2.4
19/02:21am 24.8 25.4 24.2 96 0.4 S 28 35 15 19 1011.3 - 1.8
19/02:00am 24.9 29.2 23.6 92 0.9 SSW 7 9 4 5 1012.5 - 1.6
19/01:30am 24.6 28.0 23.3 92 0.9 SW 11 15 6 8 1012.4 - 1.6
19/01:21am 24.6 28.0 23.3 92 0.9 SW 11 15 6 8 1012.5 - 1.6
19/01:02am 24.8 28.5 23.3 91 1.0 SSW 9 13 5 7 1012.6 - 1.0
19/01:00am 24.8 28.5 23.3 91 1.0 S 9 15 5 8 1012.7 - 0.6
19/12:30am 25.4 27.4 23.6 90 1.2 S 19 26 10 14 1012.7 - 0.2
19/12:00am 25.9 29.5 24.3 91 1.1 SSW 13 19 7 10 1012.5 1012.4 0.2
 
Date/Time
WST
Temp
°C
App
Temp
°C
Dew
Point
°C
Rel
Hum
%
Delta-T
°C
Wind Press
QNH
hPa
Press
MSL
hPa
Rain since
9am
mm
Dir  Spd
km/h
Gust
km/h
Spd
kts
Gust
kts
18/11:30pm 25.9 30.6 25.0 95 0.6 SW 9 11 5 6 1012.2 - 0.2
18/11:00pm 25.7 29.8 24.5 93 0.8 SSW 11 15 6 8 1012.6 - 0.2
18/10:30pm 26.7 31.1 24.5 88 1.5 SSE 9 13 5 7 1012.8 - 0.2
18/10:00pm 26.1 30.9 24.4 90 1.2 SE 7 11 4 6 1012.3 - 0.2
18/09:30pm 25.4 27.8 23.6 90 1.2 SE 17 24 9 13 1012.1 - 0.2
18/09:00pm 25.4 26.1 23.6 90 1.2 SE 26 33 14 18 1012.0 1011.9 0.2
18/08:32pm 29.3 29.8 25.2 78 2.9 E 32 54 17 29 1011.8 - 0.2
18/08:30pm 29.3 30.8 25.6 80 2.6 E 28 39 15 21 1011.7 - 0.2
18/08:00pm 29.4 32.5 25.7 80 2.6 N 20 26 11 14 1009.9 - 0.2
18/07:30pm 29.6 32.2 24.9 76 3.3 NNE 20 28 11 15 1010.0 - 0.2
18/07:00pm 29.8 32.0 24.2 72 3.9 NNE 20 24 11 13 1009.7 - 0.2
18/06:30pm 30.6 32.4 23.5 66 4.9 N 20 26 11 14 1009.5 - 0.2
18/06:00pm 31.0 33.0 24.0 66 4.9 N 20 26 11 14 1009.4 1009.3 0.2
18/05:30pm 31.5 32.6 23.1 61 5.8 N 22 28 12 15 1009.0 - 0.2
18/05:00pm 32.3 33.0 22.9 57 6.5 N 24 30 13 16 1008.8 - 0.2
18/04:30pm 32.2 32.5 22.9 58 6.4 N 26 33 14 18 1009.1 - 0.2
18/04:00pm 32.2 32.0 22.7 57 6.5 N 28 35 15 19 1009.2 - 0.2
18/03:30pm 32.2 32.5 23.6 60 6.0 N 28 35 15 19 1009.3 - 0.2
18/03:00pm 32.1 33.3 23.8 61 5.8 N 24 32 13 17 1009.5 1009.4 0.2
18/02:30pm 32.0 33.1 24.4 64 5.3 N 26 30 14 16 1009.8 - 0.2
18/02:00pm 32.6 34.0 24.8 63 5.5 N 26 32 14 17 1010.1 - 0.2
18/01:30pm 31.6 33.3 24.6 66 4.9 N 24 32 13 17 1010.4 - 0.2
18/01:00pm 31.9 34.6 25.0 67 4.9 N 20 24 11 13 1010.7 - 0.2
18/12:30pm 32.4 35.1 24.7 64 5.4 NNE 19 24 10 13 1010.8 - 0.2
18/12:00pm 32.1 35.3 25.0 66 5.0 NE 17 22 9 12 1011.0 1010.9 0.2
18/11:30am 32.1 35.1 24.6 64 5.3 ENE 17 24 9 13 1011.2 - 0.2
18/11:00am 31.4 34.3 23.9 64 5.2 ENE 15 20 8 11 1011.3 - 0.2
18/10:30am 30.9 33.6 24.2 67 4.7 E 17 22 9 12 1011.6 - 0.2
18/10:00am 30.5 32.1 23.9 68 4.6 E 22 30 12 16 1011.8 - 0.2
18/09:30am 30.4 31.3 23.9 68 4.5 E 26 32 14 17 1011.9 - 0.0
18/09:00am 29.9 31.2 24.0 70 4.1 E 24 32 13 17 1011.6 1011.5 3.2
18/08:30am 29.4 30.8 23.6 71 4.0 E 22 43 12 23 1011.4 - 3.2
18/08:00am 29.0 29.7 23.0 70 4.1 E 24 33 13 18 1011.2 - 3.2
18/07:30am 28.6 30.5 23.7 75 3.4 ESE 20 24 11 13 1010.9 - 3.2
18/07:00am 27.8 31.4 23.7 78 2.8 ESE 11 17 6 9 1010.7 - 3.2
18/06:30am 26.6 30.8 24.1 86 1.7 SE 9 11 5 6 1010.2 - 3.2
18/06:00am 26.2 32.3 24.5 90 1.2 CALM 0 0 0 0 1009.9 1009.8 3.2
18/05:30am 26.0 32.1 25.0 94 0.7 S 2 6 1 3 1009.8 - 3.2
18/05:00am 26.1 31.0 24.7 92 1.0 SW 7 9 4 5 1009.4 - 3.2
18/04:30am 26.0 30.6 24.7 92 0.9 S 9 11 5 6 1009.4 - 3.2
18/04:00am 26.1 31.7 24.8 92 0.9 SSW 4 9 2 5 1009.4 - 3.2
18/03:30am 26.4 31.6 24.8 91 1.1 SSE 6 7 3 4 1009.6 - 3.2
18/03:00am 26.8 30.0 24.3 86 1.7 SSE 15 19 8 10 1009.9 1009.8 3.2
18/02:30am 26.7 29.6 24.4 87 1.6 SE 17 22 9 12 1010.2 - 3.2
18/02:00am 25.5 28.3 23.7 90 1.2 SSE 15 19 8 10 1010.5 - 3.2
18/01:30am 25.8 30.1 24.2 91 1.1 SSW 9 13 5 7 1009.9 - 3.2
18/01:00am 26.1 30.7 24.8 92 0.9 SSW 9 13 5 7 1010.1 - 3.2
18/12:30am 26.4 31.2 25.1 92 0.9 SSW 9 13 5 7 1010.0 - 3.2
18/12:00am 26.6 31.5 25.3 93 0.9 SSW 9 13 5 7 1010.3 1010.2 3.2
 
Date/Time
WST
Temp
°C
App
Temp
°C
Dew
Point
°C
Rel
Hum
%
Delta-T
°C
Wind Press
QNH
hPa
Press
MSL
hPa
Rain since
9am
mm
Dir  Spd
km/h
Gust
km/h
Spd
kts
Gust
kts
17/11:30pm 26.9 30.8 24.9 89 1.4 SSW 13 17 7 9 1010.5 - 3.2
17/11:00pm 27.3 32.8 25.6 90 1.2 S 7 13 4 7 1010.9 - 3.2
17/10:30pm 27.7 30.9 25.9 90 1.3 SSE 20 28 11 15 1010.6 - 3.2
17/10:00pm 27.0 31.4 25.7 93 0.9 SSE 13 22 7 12 1011.1 - 3.2
17/09:30pm 27.1 31.0 25.5 91 1.1 S 15 19 8 10 1010.5 - 3.2
17/09:00pm 26.8 27.2 25.1 90 1.2 SSW 32 44 17 24 1009.1 1009.0 3.0
17/08:56pm 27.0 27.3 24.8 88 1.5 SW 32 44 17 24 1009.0 - 3.0
17/08:30pm 27.2 29.7 25.3 89 1.3 SW 22 26 12 14 1009.2 - 2.8
17/08:00pm 26.5 30.0 24.8 90 1.2 WSW 15 17 8 9 1009.8 - 2.4
17/07:30pm 26.7 30.2 24.8 89 1.3 NW 15 19 8 10 1010.0 - 2.0
17/07:00pm 26.8 27.5 24.3 86 1.7 ENE 28 35 15 19 1010.4 - 2.0
17/06:33pm 27.4 24.2 23.5 79 2.7 NE 46 67 25 36 1010.0 - 0.0
17/06:30pm 27.2 24.2 23.1 78 2.8 NE 44 67 24 36 1009.9 - 0.0
17/06:20pm 30.0 27.4 22.8 65 4.9 ENE 41 54 22 29 1010.2 - 0.0
17/06:19pm 32.0 32.9 23.3 60 6.0 E 24 44 13 24 1010.1 - 0.0
17/06:00pm 34.3 37.3 23.4 53 7.6 W 13 17 7 9 1007.6 1007.5 0.0
17/05:30pm 33.6 36.0 24.2 58 6.6 NNE 19 26 10 14 1007.7 - 0.0
17/05:00pm 34.8 36.7 22.8 49 8.3 NNE 17 20 9 11 1006.9 - 0.0

Other Formats:

Comma delimited format used in spreadsheet applications
http://www.bom.gov.au/fwo/IDW60801/IDW60801.94302.axf

JavaScript Object Notation format (JSON) in row-major order
http://www.bom.gov.au/fwo/IDW60801/IDW60801.94302.json